createdAt,value
2018-11-05T00:00:19.688Z,21.80
2018-11-05T00:01:19.666Z,22.00
2018-11-05T00:02:19.642Z,23.50
2018-11-05T00:03:19.622Z,24.10
2018-11-05T00:04:19.602Z,23.00
2018-11-05T00:05:19.588Z,22.90
2018-11-05T00:06:19.556Z,24.10
2018-11-05T00:07:19.527Z,23.50
2018-11-05T00:08:19.506Z,23.30
2018-11-05T00:09:19.493Z,23.40
2018-11-05T00:10:19.462Z,23.80
2018-11-05T00:11:19.442Z,23.90
2018-11-05T00:12:19.417Z,24.80
2018-11-05T00:13:19.545Z,24.30
2018-11-05T00:14:19.376Z,23.40
2018-11-05T00:15:19.353Z,24.20
2018-11-05T00:16:19.332Z,23.70
2018-11-05T00:17:19.304Z,23.60
2018-11-05T00:18:19.290Z,24.40
2018-11-05T00:19:19.261Z,23.50
2018-11-05T00:20:19.242Z,24.00
2018-11-05T00:21:19.216Z,23.80
2018-11-05T00:22:19.192Z,23.70
2018-11-05T00:23:19.179Z,22.90
2018-11-05T00:24:19.152Z,23.70
2018-11-05T00:25:19.126Z,24.00
2018-11-05T00:26:19.103Z,23.60
2018-11-05T00:27:19.088Z,23.40
2018-11-05T00:28:19.065Z,24.20
2018-11-05T00:29:19.036Z,23.20
2018-11-05T00:30:19.010Z,24.40
2018-11-05T00:31:19.005Z,23.50
2018-11-05T00:32:18.974Z,25.00
2018-11-05T00:33:18.952Z,23.50
2018-11-05T00:34:18.924Z,24.70
2018-11-05T00:35:18.905Z,24.10
2018-11-05T00:36:18.880Z,24.20
2018-11-05T00:37:18.856Z,24.50
2018-11-05T00:38:18.876Z,25.40
2018-11-05T00:39:18.813Z,25.10
2018-11-05T00:40:18.790Z,25.30
2018-11-05T00:41:18.772Z,24.90
2018-11-05T00:42:18.748Z,25.10
2018-11-05T00:43:18.719Z,24.80
2018-11-05T00:44:18.701Z,25.30
2018-11-05T00:45:18.679Z,24.40
2018-11-05T00:46:18.654Z,24.10
2018-11-05T00:47:18.630Z,24.20
2018-11-05T00:48:18.607Z,25.00
2018-11-05T00:49:18.786Z,25.20
2018-11-05T00:50:18.563Z,24.60
2018-11-05T00:51:18.538Z,25.50
2018-11-05T00:52:18.536Z,24.70
2018-11-05T00:53:18.494Z,25.90
2018-11-05T00:54:18.468Z,24.70
2018-11-05T00:55:18.446Z,24.40
2018-11-05T00:56:18.427Z,25.50
2018-11-05T00:57:18.402Z,24.20
2018-11-05T00:58:18.379Z,25.00
2018-11-05T00:59:18.371Z,26.10
2018-11-05T01:00:18.334Z,26.40
2018-11-05T01:01:18.311Z,26.40
2018-11-05T01:02:18.288Z,26.40
2018-11-05T01:03:18.271Z,26.00
2018-11-05T01:04:18.243Z,26.70
2018-11-05T01:05:18.222Z,27.30
2018-11-05T01:06:18.197Z,26.50
2018-11-05T01:07:18.177Z,27.10
2018-11-05T01:08:18.306Z,27.40
2018-11-05T01:09:18.138Z,26.80
2018-11-05T01:10:18.108Z,26.70
2018-11-05T01:11:18.107Z,27.20
2018-11-05T01:12:18.061Z,27.10
2018-11-05T01:13:18.044Z,28.00
2018-11-05T01:14:18.027Z,28.10
2018-11-05T01:15:17.994Z,28.00
2018-11-05T01:16:17.974Z,28.10
2018-11-05T01:17:17.948Z,28.00
2018-11-05T01:18:17.928Z,28.00
2018-11-05T01:19:17.901Z,27.20
2018-11-05T01:20:17.878Z,27.70
2018-11-05T01:21:17.864Z,27.00
2018-11-05T01:22:17.834Z,27.80
2018-11-05T01:23:17.810Z,27.60
2018-11-05T01:24:17.786Z,27.20
2018-11-05T01:25:17.765Z,28.00
2018-11-05T01:26:17.740Z,27.50
2018-11-05T01:27:17.716Z,27.70
2018-11-05T01:28:17.696Z,27.70
2018-11-05T01:29:17.675Z,28.80
2018-11-05T01:30:17.660Z,27.10
2018-11-05T01:31:17.627Z,28.10
2018-11-05T01:32:17.606Z,28.00
2018-11-05T01:33:17.606Z,28.00
2018-11-05T01:34:17.559Z,26.70
2018-11-05T01:35:17.535Z,26.40
2018-11-05T01:36:17.513Z,26.50
2018-11-05T01:37:17.555Z,28.00
2018-11-05T01:38:17.475Z,27.00
2018-11-05T01:39:17.446Z,28.30
2018-11-05T01:40:17.426Z,27.80
2018-11-05T01:41:17.398Z,28.10
2018-11-05T01:42:17.380Z,28.90
2018-11-05T01:43:17.363Z,28.30
2018-11-05T01:44:17.450Z,27.20
2018-11-05T01:45:17.310Z,27.30
2018-11-05T01:46:17.289Z,28.00
2018-11-05T01:47:17.409Z,28.20
2018-11-05T01:48:17.238Z,27.70
2018-11-05T01:49:17.225Z,27.60
2018-11-05T01:50:17.209Z,27.90
2018-11-05T01:51:17.170Z,27.60
2018-11-05T01:52:17.146Z,28.30
2018-11-05T01:53:17.133Z,28.30
2018-11-05T01:54:17.105Z,27.20
2018-11-05T01:55:17.088Z,27.20
2018-11-05T01:56:17.065Z,28.80
2018-11-05T01:57:17.040Z,28.80
2018-11-05T01:58:17.008Z,27.50
2018-11-05T01:59:16.989Z,27.70
2018-11-05T02:00:16.967Z,26.70
2018-11-05T02:01:16.944Z,27.20
2018-11-05T02:02:16.918Z,27.30
2018-11-05T02:03:16.896Z,27.70
2018-11-05T02:04:16.874Z,27.60
2018-11-05T02:05:16.853Z,27.90
2018-11-05T02:06:16.976Z,27.30
2018-11-05T02:07:16.806Z,27.60
2018-11-05T02:08:16.795Z,27.60
2018-11-05T02:09:16.817Z,26.90
2018-11-05T02:10:16.830Z,27.40
2018-11-05T02:11:16.724Z,27.70
2018-11-05T02:12:16.794Z,29.00
2018-11-05T02:13:16.697Z,28.60
2018-11-05T02:14:16.654Z,29.40
2018-11-05T02:15:16.628Z,28.10
2018-11-05T02:16:16.611Z,28.90
2018-11-05T02:17:16.576Z,28.10
2018-11-05T02:18:16.554Z,28.90
2018-11-05T02:19:16.530Z,28.30
2018-11-05T02:20:16.507Z,27.80
2018-11-05T02:21:16.485Z,28.60
2018-11-05T02:22:16.466Z,28.60
2018-11-05T02:23:16.442Z,28.00
2018-11-05T02:24:16.424Z,28.10
2018-11-05T02:25:16.397Z,28.20
2018-11-05T02:26:16.380Z,28.60
2018-11-05T02:27:16.431Z,26.10
2018-11-05T02:28:16.327Z,29.00
2018-11-05T02:29:16.303Z,27.90
2018-11-05T02:30:16.280Z,28.30
2018-11-05T02:31:16.258Z,25.40
2018-11-05T02:32:16.234Z,26.40
2018-11-05T02:33:16.212Z,26.60
2018-11-05T02:34:16.193Z,26.60
2018-11-05T02:35:16.172Z,25.40
2018-11-05T02:36:16.145Z,27.30
2018-11-05T02:37:16.121Z,25.50
2018-11-05T02:38:16.103Z,25.00
2018-11-05T02:39:16.197Z,26.20
2018-11-05T02:40:16.053Z,25.20
2018-11-05T02:41:16.030Z,25.20
2018-11-05T02:42:16.093Z,26.00
2018-11-05T02:43:15.980Z,25.30
2018-11-05T02:44:15.960Z,26.80
2018-11-05T02:45:15.993Z,26.30
2018-11-05T02:46:15.913Z,25.10
2018-11-05T02:47:15.899Z,25.30
2018-11-05T02:48:15.873Z,25.80
2018-11-05T02:49:15.849Z,25.80
2018-11-05T02:50:15.822Z,24.40
2018-11-05T02:51:15.803Z,24.70
2018-11-05T02:52:15.774Z,25.60
2018-11-05T02:53:15.752Z,25.20
2018-11-05T02:54:15.732Z,24.60
2018-11-05T02:55:15.710Z,24.10
2018-11-05T02:56:15.685Z,23.90
2018-11-05T02:57:15.662Z,24.30
2018-11-05T02:58:15.638Z,24.40
2018-11-05T02:59:15.613Z,24.80
2018-11-05T03:00:15.592Z,22.80
2018-11-05T03:01:15.569Z,23.90
2018-11-05T03:02:15.555Z,23.60
2018-11-05T03:03:15.670Z,23.50
2018-11-05T03:04:15.679Z,24.30
2018-11-05T03:05:15.479Z,23.90
2018-11-05T03:06:15.454Z,23.20
2018-11-05T03:07:15.500Z,23.70
2018-11-05T03:08:15.408Z,23.60
2018-11-05T03:09:15.390Z,23.10
2018-11-05T03:10:15.361Z,22.10
2018-11-05T03:11:15.342Z,23.20
2018-11-05T03:12:15.319Z,22.90
2018-11-05T03:13:15.294Z,23.40
2018-11-05T03:14:15.272Z,24.00
2018-11-05T03:15:15.330Z,25.30
2018-11-05T03:16:15.228Z,23.60
2018-11-05T03:17:15.203Z,23.50
2018-11-05T03:18:15.329Z,22.50
2018-11-05T03:19:15.154Z,23.70
2018-11-05T03:20:15.145Z,24.20
2018-11-05T03:21:15.139Z,22.60
2018-11-05T03:22:15.088Z,23.60
2018-11-05T03:23:15.067Z,23.00
2018-11-05T03:24:15.041Z,23.80
2018-11-05T03:25:15.021Z,22.80
2018-11-05T03:26:14.996Z,22.20
2018-11-05T03:27:14.972Z,23.10
2018-11-05T03:28:14.963Z,22.40
2018-11-05T03:29:14.937Z,24.30
2018-11-05T03:30:14.904Z,24.10
2018-11-05T03:31:14.885Z,24.10
2018-11-05T03:32:14.861Z,24.40
2018-11-05T03:33:14.840Z,23.60
2018-11-05T03:34:14.825Z,23.40
2018-11-05T03:35:14.794Z,23.90
2018-11-05T03:36:14.768Z,23.30
2018-11-05T03:37:14.746Z,22.50
2018-11-05T03:38:14.733Z,23.00
2018-11-05T03:39:14.714Z,23.60
2018-11-05T03:40:14.808Z,23.60
2018-11-05T03:41:14.649Z,23.50
2018-11-05T03:42:14.631Z,23.30
2018-11-05T03:43:14.661Z,23.50
2018-11-05T03:44:14.581Z,24.00
2018-11-05T03:45:14.561Z,24.20
2018-11-05T03:46:14.587Z,24.30
2018-11-05T03:47:14.511Z,23.30
2018-11-05T03:48:14.489Z,24.10
2018-11-05T03:49:14.517Z,22.80
2018-11-05T03:50:14.439Z,23.60
2018-11-05T03:51:14.418Z,23.30
2018-11-05T03:52:14.436Z,23.50
2018-11-05T03:53:14.374Z,22.60
2018-11-05T03:54:14.348Z,22.40
2018-11-05T03:55:14.326Z,22.40
2018-11-05T03:56:14.336Z,22.10
2018-11-05T03:57:14.281Z,21.60
2018-11-05T03:58:14.272Z,22.80
2018-11-05T03:59:14.236Z,22.70
2018-11-05T04:00:14.213Z,22.10
2018-11-05T04:01:14.188Z,20.80
2018-11-05T04:02:14.163Z,21.70
2018-11-05T04:03:14.209Z,21.10
2018-11-05T04:04:14.129Z,21.80
2018-11-05T04:05:14.095Z,20.90
2018-11-05T04:06:14.118Z,21.40
2018-11-05T04:07:14.050Z,20.20
2018-11-05T04:08:14.028Z,20.20
2018-11-05T04:09:14.006Z,21.50
2018-11-05T04:10:13.986Z,20.30
2018-11-05T04:11:13.959Z,21.10
2018-11-05T04:12:13.937Z,20.40
2018-11-05T04:13:14.002Z,19.60
2018-11-05T04:14:13.899Z,21.00
2018-11-05T04:15:13.926Z,19.50
2018-11-05T04:16:14.024Z,20.30
2018-11-05T04:17:13.820Z,19.30
2018-11-05T04:18:13.804Z,19.10
2018-11-05T04:19:13.791Z,19.40
2018-11-05T04:20:13.756Z,18.80
2018-11-05T04:21:13.730Z,19.10
2018-11-05T04:22:13.705Z,18.60
2018-11-05T04:23:13.682Z,19.20
2018-11-05T04:24:13.666Z,19.60
2018-11-05T04:25:13.634Z,16.80
2018-11-05T04:26:13.612Z,18.00
2018-11-05T04:27:13.589Z,19.00
2018-11-05T04:28:13.575Z,19.20
2018-11-05T04:29:13.551Z,19.10
2018-11-05T04:30:13.574Z,18.90
2018-11-05T04:31:13.496Z,19.30
2018-11-05T04:32:13.473Z,18.70
2018-11-05T04:33:13.461Z,19.30
2018-11-05T04:34:13.428Z,20.70
2018-11-05T04:35:13.402Z,20.30
2018-11-05T04:36:13.378Z,20.00
2018-11-05T04:37:13.362Z,20.80
2018-11-05T04:38:13.464Z,20.00
2018-11-05T04:39:13.321Z,20.80
2018-11-05T04:40:13.297Z,20.90
2018-11-05T04:41:13.374Z,20.80
2018-11-05T04:42:13.243Z,19.70
2018-11-05T04:43:13.219Z,20.50
2018-11-05T04:44:13.205Z,20.40
2018-11-05T04:45:13.172Z,21.80
2018-11-05T04:46:13.149Z,20.20
2018-11-05T04:47:13.127Z,21.80
2018-11-05T04:48:13.104Z,21.70
2018-11-05T04:49:13.097Z,23.50
2018-11-05T04:50:13.071Z,23.50
2018-11-05T04:51:13.035Z,22.10
2018-11-05T04:52:13.027Z,22.00
2018-11-05T04:53:12.994Z,21.90
2018-11-05T04:54:12.971Z,21.40
2018-11-05T04:55:12.944Z,20.60
2018-11-05T04:56:12.917Z,22.70
2018-11-05T04:57:12.898Z,23.00
2018-11-05T04:58:12.875Z,21.80
2018-11-05T04:59:12.852Z,21.40
2018-11-05T05:00:12.834Z,22.80
2018-11-05T05:01:12.807Z,23.60
2018-11-05T05:02:12.782Z,23.40
2018-11-05T05:03:12.780Z,24.10
2018-11-05T05:04:12.733Z,23.10
2018-11-05T05:05:12.711Z,22.50
2018-11-05T05:06:12.695Z,22.70
2018-11-05T05:07:12.665Z,21.40
2018-11-05T05:08:12.640Z,20.20
2018-11-05T05:09:12.633Z,22.40
2018-11-05T05:10:12.596Z,22.10
2018-11-05T05:11:12.626Z,22.80
2018-11-05T05:12:12.550Z,22.60
2018-11-05T05:13:12.528Z,22.60
2018-11-05T05:14:12.548Z,25.10
2018-11-05T05:15:12.480Z,23.30
2018-11-05T05:16:12.504Z,24.50
2018-11-05T05:17:12.438Z,24.00
2018-11-05T05:18:12.409Z,23.00
2018-11-05T05:19:12.383Z,24.90
2018-11-05T05:20:12.370Z,24.60
2018-11-05T05:21:12.338Z,24.50
2018-11-05T05:22:12.320Z,23.60
2018-11-05T05:23:12.419Z,25.20
2018-11-05T05:24:12.267Z,24.90
2018-11-05T05:25:12.248Z,25.20
2018-11-05T05:26:12.226Z,24.80
2018-11-05T05:27:12.198Z,24.90
2018-11-05T05:28:12.174Z,24.70
2018-11-05T05:29:12.152Z,25.30
2018-11-05T05:30:12.136Z,25.30
2018-11-05T05:31:12.105Z,23.70
2018-11-05T05:32:12.082Z,24.40
2018-11-05T05:33:12.193Z,24.00
2018-11-05T05:34:12.034Z,25.70
2018-11-05T05:35:12.011Z,24.90
2018-11-05T05:36:11.988Z,24.80
2018-11-05T05:37:11.967Z,24.70
2018-11-05T05:38:11.942Z,25.10
2018-11-05T05:39:11.922Z,24.80
2018-11-05T05:40:11.897Z,24.80
2018-11-05T05:41:11.947Z,25.50
2018-11-05T05:42:11.858Z,24.30
2018-11-05T05:43:11.827Z,23.90
2018-11-05T05:44:11.812Z,21.90
2018-11-05T05:45:11.799Z,23.30
2018-11-05T05:46:11.756Z,23.30
2018-11-05T05:47:11.802Z,21.50
2018-11-05T05:48:11.707Z,21.80
2018-11-05T05:49:11.688Z,23.50
2018-11-05T05:50:11.769Z,21.70
2018-11-05T05:51:11.640Z,22.20
2018-11-05T05:52:11.617Z,22.60
2018-11-05T05:53:11.598Z,21.40
2018-11-05T05:54:11.568Z,21.40
2018-11-05T05:55:11.549Z,21.10
2018-11-05T05:56:11.524Z,22.20
2018-11-05T05:57:11.500Z,20.60
2018-11-05T05:58:11.476Z,20.40
2018-11-05T05:59:11.464Z,20.50
2018-11-05T06:00:11.436Z,21.10
2018-11-05T06:01:11.417Z,21.10
2018-11-05T06:02:11.388Z,20.20
2018-11-05T06:03:11.367Z,20.90
2018-11-05T06:04:11.341Z,20.80
2018-11-05T06:05:11.314Z,18.60
2018-11-05T06:06:11.384Z,20.30
2018-11-05T06:07:11.274Z,18.70
2018-11-05T06:08:11.247Z,20.80
2018-11-05T06:09:11.347Z,19.90
2018-11-05T06:10:11.199Z,20.40
2018-11-05T06:11:11.176Z,19.80
2018-11-05T06:12:11.251Z,19.50
2018-11-05T06:13:11.131Z,20.40
2018-11-05T06:14:11.113Z,20.20
2018-11-05T06:15:11.140Z,20.10
2018-11-05T06:16:11.061Z,20.00
2018-11-05T06:17:11.038Z,20.30
2018-11-05T06:18:11.020Z,20.30
2018-11-05T06:19:11.000Z,20.90
2018-11-05T06:20:10.983Z,22.00
2018-11-05T06:21:10.945Z,21.80
2018-11-05T06:22:10.922Z,22.80
2018-11-05T06:23:10.899Z,21.60
2018-11-05T06:24:10.878Z,21.80
2018-11-05T06:25:10.854Z,21.30
2018-11-05T06:26:10.880Z,22.90
2018-11-05T06:27:10.807Z,22.00
2018-11-05T06:28:10.784Z,21.90
2018-11-05T06:29:10.764Z,22.30
2018-11-05T06:30:10.737Z,23.20
2018-11-05T06:31:10.715Z,23.10
2018-11-05T06:32:10.697Z,22.40
2018-11-05T06:33:10.674Z,24.20
2018-11-05T06:34:10.647Z,22.80
2018-11-05T06:35:10.670Z,24.50
2018-11-05T06:36:10.603Z,23.20
2018-11-05T06:37:10.580Z,23.50
2018-11-05T06:38:10.571Z,25.00
2018-11-05T06:39:10.531Z,23.50
2018-11-05T06:40:10.512Z,23.60
2018-11-05T06:41:10.600Z,23.40
2018-11-05T06:42:10.466Z,24.10
2018-11-05T06:43:10.450Z,23.50
2018-11-05T06:44:10.448Z,25.40
2018-11-05T06:45:10.459Z,24.50
2018-11-05T06:46:10.373Z,25.00
2018-11-05T06:47:10.351Z,23.10
2018-11-05T06:48:10.343Z,24.40
2018-11-05T06:49:10.308Z,23.90
2018-11-05T06:50:10.283Z,23.40
2018-11-05T06:51:10.265Z,23.80
2018-11-05T06:52:10.244Z,24.50
2018-11-05T06:53:10.215Z,25.10
2018-11-05T06:54:10.193Z,25.80
2018-11-05T06:55:10.173Z,26.50
2018-11-05T06:56:10.148Z,26.00
2018-11-05T06:57:10.125Z,27.30
2018-11-05T06:58:10.115Z,25.20
2018-11-05T06:59:10.089Z,26.30
2018-11-05T07:00:10.058Z,27.30
2018-11-05T07:01:10.105Z,26.30
2018-11-05T07:02:10.012Z,26.70
2018-11-05T07:03:09.994Z,26.90
2018-11-05T07:04:09.984Z,26.80
2018-11-05T07:05:09.954Z,29.30
2018-11-05T07:06:09.925Z,28.20
2018-11-05T07:07:10.003Z,28.20
2018-11-05T07:08:09.900Z,29.00
2018-11-05T07:09:09.857Z,28.60
2018-11-05T07:10:09.833Z,28.30
2018-11-05T07:11:09.839Z,28.20
2018-11-05T07:12:09.791Z,28.40
2018-11-05T07:13:09.765Z,30.00
2018-11-05T07:14:09.743Z,29.50
2018-11-05T07:15:09.737Z,29.50
2018-11-05T07:16:09.701Z,29.40
2018-11-05T07:17:09.688Z,29.50
2018-11-05T07:18:09.811Z,30.20
2018-11-05T07:19:09.962Z,30.10
2018-11-05T07:20:09.614Z,31.10
2018-11-05T07:21:09.598Z,31.30
2018-11-05T07:22:09.564Z,30.40
2018-11-05T07:23:09.550Z,30.90
2018-11-05T07:24:09.521Z,29.80
2018-11-05T07:25:09.500Z,31.80
2018-11-05T07:26:09.482Z,31.10
2018-11-05T07:27:09.458Z,30.70
2018-11-05T07:28:09.432Z,31.80
2018-11-05T07:29:09.417Z,31.50
2018-11-05T07:30:09.388Z,29.80
2018-11-05T07:31:09.366Z,30.60
2018-11-05T07:32:09.343Z,30.70
2018-11-05T07:33:09.347Z,37.60
2018-11-05T07:34:09.360Z,32.60
2018-11-05T07:35:09.280Z,33.20
2018-11-05T07:36:09.268Z,32.50
2018-11-05T07:37:09.233Z,31.20
2018-11-05T07:38:09.213Z,31.40
2018-11-05T07:39:09.193Z,31.60
2018-11-05T07:40:09.176Z,31.70
2018-11-05T07:41:09.157Z,32.80
2018-11-05T07:42:09.126Z,32.30
2018-11-05T07:43:09.179Z,31.50
2018-11-05T07:44:09.079Z,32.00
2018-11-05T07:45:09.058Z,32.50
2018-11-05T07:46:09.048Z,33.00
2018-11-05T07:47:09.014Z,31.40
2018-11-05T07:48:08.992Z,32.00
2018-11-05T07:49:08.974Z,30.80
2018-11-05T07:50:09.008Z,32.40
2018-11-05T07:51:08.928Z,31.70
2018-11-05T07:52:08.915Z,32.30
2018-11-05T07:53:08.890Z,31.50
2018-11-05T07:54:08.858Z,33.70
2018-11-05T07:55:08.842Z,32.40
2018-11-05T07:56:08.844Z,33.50
2018-11-05T07:57:08.806Z,32.50
2018-11-05T07:58:08.773Z,32.30
2018-11-05T07:59:08.754Z,33.10
2018-11-05T08:00:08.734Z,33.50
2018-11-05T08:01:08.707Z,32.80
2018-11-05T08:02:08.690Z,32.50
2018-11-05T08:03:08.662Z,32.50
2018-11-05T08:04:08.643Z,31.80
2018-11-05T08:05:08.629Z,33.70
2018-11-05T08:06:08.599Z,31.80
2018-11-05T08:07:08.579Z,31.80
2018-11-05T08:08:08.595Z,31.80
2018-11-05T08:09:08.538Z,33.70
2018-11-05T08:10:08.512Z,32.50
2018-11-05T08:11:08.490Z,31.80
2018-11-05T08:12:08.467Z,31.80
2018-11-05T08:13:08.470Z,31.40
2018-11-05T08:14:08.481Z,31.70
2018-11-05T08:15:08.406Z,31.90
2018-11-05T08:16:08.389Z,32.50
2018-11-05T08:17:08.369Z,32.20
2018-11-05T08:18:08.343Z,32.60
2018-11-05T08:19:08.316Z,31.90
2018-11-05T08:20:08.295Z,37.30
2018-11-05T08:21:08.285Z,33.90
2018-11-05T08:22:08.263Z,33.60
2018-11-05T08:23:08.236Z,33.20
2018-11-05T08:24:08.214Z,33.00
2018-11-05T08:25:08.191Z,32.80
2018-11-05T08:26:08.172Z,33.10
2018-11-05T08:27:08.152Z,32.90
2018-11-05T08:28:08.125Z,33.30
2018-11-05T08:29:08.113Z,33.30
2018-11-05T08:30:08.090Z,32.90
2018-11-05T08:31:08.065Z,33.50
2018-11-05T08:32:08.047Z,31.70
2018-11-05T08:33:08.026Z,33.80
2018-11-05T08:34:08.010Z,34.20
2018-11-05T08:35:07.989Z,33.10
2018-11-05T08:36:07.958Z,35.20
2018-11-05T08:37:07.953Z,34.80
2018-11-05T08:38:08.042Z,34.90
2018-11-05T08:39:07.896Z,34.40
2018-11-05T08:40:07.980Z,35.00
2018-11-05T08:41:07.864Z,34.40
2018-11-05T08:42:07.835Z,34.70
2018-11-05T08:43:07.812Z,33.60
2018-11-05T08:44:07.799Z,33.10
2018-11-05T08:45:07.769Z,32.00
2018-11-05T08:46:07.748Z,33.20
2018-11-05T08:47:07.730Z,32.20
2018-11-05T08:48:07.717Z,33.80
2018-11-05T08:49:07.797Z,31.90
2018-11-05T08:50:07.774Z,32.80
2018-11-05T08:51:07.953Z,32.80
2018-11-05T08:52:07.699Z,34.20
2018-11-05T08:53:07.604Z,34.60
2018-11-05T08:54:07.590Z,33.90
2018-11-05T08:55:07.564Z,33.00
2018-11-05T08:56:07.564Z,32.00
2018-11-05T08:57:07.530Z,31.70
2018-11-05T08:58:07.507Z,32.60
2018-11-05T08:59:07.483Z,30.20
2018-11-05T09:00:07.468Z,31.40
2018-11-05T09:01:07.548Z,30.70
2018-11-05T09:02:07.424Z,27.90
2018-11-05T09:03:07.402Z,31.10
2018-11-05T09:04:07.382Z,32.90
2018-11-05T09:05:07.498Z,29.40
2018-11-05T09:06:07.344Z,29.40
2018-11-05T09:07:07.322Z,30.00
2018-11-05T09:08:07.487Z,30.30
2018-11-05T09:09:07.292Z,30.80
2018-11-05T09:10:07.449Z,30.20
2018-11-05T09:11:07.635Z,31.00
2018-11-05T09:12:07.353Z,30.50
2018-11-05T09:13:07.205Z,31.80
2018-11-05T09:14:07.243Z,27.00
2018-11-05T09:15:07.168Z,28.00
2018-11-05T09:16:07.191Z,28.30
2018-11-05T09:17:07.126Z,30.30
2018-11-05T09:18:07.104Z,28.10
2018-11-05T09:19:07.082Z,30.90
2018-11-05T09:20:07.065Z,28.30
2018-11-05T09:21:07.046Z,29.20
2018-11-05T09:22:07.023Z,27.90
2018-11-05T09:23:07.002Z,28.70
2018-11-05T09:24:06.985Z,28.70
2018-11-05T09:25:06.962Z,29.10
2018-11-05T09:26:06.968Z,28.70
2018-11-05T09:27:06.936Z,26.50
2018-11-05T09:28:07.026Z,28.50
2018-11-05T09:29:06.884Z,25.80
2018-11-05T09:30:06.861Z,26.60
2018-11-05T09:31:06.850Z,27.70
2018-11-05T09:32:06.824Z,27.50
2018-11-05T09:33:06.803Z,26.10
2018-11-05T09:34:06.788Z,27.30
2018-11-05T09:35:06.762Z,24.90
2018-11-05T09:36:06.767Z,27.30
2018-11-05T09:37:06.722Z,26.50
2018-11-05T09:38:06.702Z,27.00
2018-11-05T09:39:06.691Z,26.50
2018-11-05T09:40:06.660Z,28.10
2018-11-05T09:41:06.656Z,28.10
2018-11-05T09:42:06.624Z,29.70
2018-11-05T09:43:06.609Z,26.30
2018-11-05T09:44:06.640Z,26.50
2018-11-05T09:45:06.568Z,25.20
2018-11-05T09:46:06.550Z,24.20
2018-11-05T09:47:06.524Z,26.30
2018-11-05T09:48:06.510Z,26.90
2018-11-05T09:49:06.482Z,24.40
2018-11-05T09:50:06.461Z,21.30
2018-11-05T09:51:06.443Z,22.80
2018-11-05T09:52:06.420Z,23.00
2018-11-05T09:53:06.401Z,24.20
2018-11-05T09:54:06.380Z,25.50
2018-11-05T09:55:06.358Z,24.80
2018-11-05T09:56:06.339Z,24.30
2018-11-05T09:57:06.330Z,23.20
2018-11-05T09:58:06.298Z,20.80
2018-11-05T09:59:06.287Z,20.40
2018-11-05T10:00:06.390Z,20.80
2018-11-05T10:01:06.246Z,21.60
2018-11-05T10:02:06.214Z,21.60
2018-11-05T10:03:06.371Z,22.60
2018-11-05T10:04:06.199Z,22.20
2018-11-05T10:05:06.415Z,23.60
2018-11-05T10:06:06.139Z,19.70
2018-11-05T10:07:06.113Z,21.10
2018-11-05T10:08:06.102Z,20.10
2018-11-05T10:09:06.073Z,19.90
2018-11-05T10:10:06.116Z,20.40
2018-11-05T10:11:06.035Z,20.10
2018-11-05T10:12:06.061Z,21.70
2018-11-05T10:13:06.003Z,20.90
2018-11-05T10:14:05.973Z,20.40
2018-11-05T10:15:05.950Z,20.90
2018-11-05T10:16:05.934Z,21.90
2018-11-05T10:17:05.911Z,20.80
2018-11-05T10:18:05.889Z,20.00
2018-11-05T10:19:05.871Z,20.90
2018-11-05T10:20:05.858Z,21.40
2018-11-05T10:21:05.833Z,21.10
2018-11-05T10:22:05.812Z,21.90
2018-11-05T10:23:05.790Z,21.40
2018-11-05T10:24:05.771Z,19.50
2018-11-05T10:25:05.914Z,20.50
2018-11-05T10:26:05.745Z,20.20
2018-11-05T10:27:05.708Z,19.00
2018-11-05T10:28:05.737Z,19.80
2018-11-05T10:29:05.678Z,20.70
2018-11-05T10:30:05.800Z,24.90
2018-11-05T10:31:05.630Z,16.30
2018-11-05T10:32:05.619Z,18.00
2018-11-05T10:33:05.741Z,18.30
2018-11-05T10:34:05.579Z,15.50
2018-11-05T10:35:05.550Z,19.90
2018-11-05T10:36:05.537Z,19.20
2018-11-05T10:37:05.513Z,19.30
2018-11-05T10:38:05.490Z,18.40
2018-11-05T10:39:05.471Z,19.20
2018-11-05T10:40:05.467Z,18.90
2018-11-05T10:41:05.429Z,19.70
2018-11-05T10:42:05.413Z,18.70
2018-11-05T10:43:05.402Z,18.70
2018-11-05T10:44:05.423Z,18.00
2018-11-05T10:45:05.355Z,19.00
2018-11-05T10:46:05.344Z,19.80
2018-11-05T10:47:05.318Z,20.00
2018-11-05T10:48:05.292Z,19.30
2018-11-05T10:49:05.280Z,18.70
2018-11-05T10:50:05.250Z,18.60
2018-11-05T10:51:05.318Z,19.10
2018-11-05T10:52:05.514Z,20.40
2018-11-05T10:53:05.196Z,18.80
2018-11-05T10:54:05.180Z,18.50
2018-11-05T10:55:05.165Z,19.90
2018-11-05T10:56:05.141Z,19.40
2018-11-05T10:57:05.195Z,20.30
2018-11-05T10:58:05.147Z,20.20
2018-11-05T10:59:05.081Z,20.00
2018-11-05T11:00:05.052Z,20.50
2018-11-05T11:01:05.050Z,19.80
2018-11-05T11:02:05.021Z,20.50
2018-11-05T11:03:05.005Z,20.40
2018-11-05T11:04:05.138Z,20.70
2018-11-05T11:05:04.959Z,20.10
2018-11-05T11:06:04.934Z,20.70
2018-11-05T11:07:04.920Z,19.50
2018-11-05T11:08:04.900Z,18.10
2018-11-05T11:09:04.877Z,18.00
2018-11-05T11:10:04.860Z,18.60
2018-11-05T11:11:04.839Z,17.60
2018-11-05T11:12:04.827Z,18.40
2018-11-05T11:13:04.804Z,17.90
2018-11-05T11:14:04.796Z,17.80
2018-11-05T11:15:04.837Z,18.60
2018-11-05T11:16:04.747Z,18.30
2018-11-05T11:17:04.722Z,18.60
2018-11-05T11:18:04.705Z,18.60
2018-11-05T11:19:04.685Z,19.30
2018-11-05T11:20:04.663Z,18.20
2018-11-05T11:21:04.654Z,18.40
2018-11-05T11:22:04.793Z,17.50
2018-11-05T11:23:04.605Z,18.10
2018-11-05T11:24:04.600Z,17.90
2018-11-05T11:25:04.611Z,19.50
2018-11-05T11:26:04.552Z,18.40
2018-11-05T11:27:04.538Z,18.30
2018-11-05T11:28:04.721Z,17.70
2018-11-05T11:29:04.614Z,19.50
2018-11-05T11:30:04.470Z,17.20
2018-11-05T11:31:04.453Z,17.50
2018-11-05T11:32:04.441Z,18.10
2018-11-05T11:33:04.416Z,18.00
2018-11-05T11:34:04.395Z,17.70
2018-11-05T11:35:04.381Z,17.20
2018-11-05T11:36:04.372Z,17.00
2018-11-05T11:37:04.474Z,17.30
2018-11-05T11:38:04.328Z,17.10
2018-11-05T11:39:04.304Z,18.00
2018-11-05T11:40:04.301Z,18.10
2018-11-05T11:41:04.259Z,18.10
2018-11-05T11:42:04.242Z,16.70
2018-11-05T11:43:04.228Z,17.10
2018-11-05T11:44:04.242Z,17.90
2018-11-05T11:45:04.306Z,18.00
2018-11-05T11:46:04.227Z,18.20
2018-11-05T11:47:04.181Z,17.70
2018-11-05T11:48:04.132Z,17.60
2018-11-05T11:49:04.113Z,16.20
2018-11-05T11:50:04.115Z,17.50
2018-11-05T11:51:04.096Z,17.70
2018-11-05T11:52:04.057Z,18.00
2018-11-05T11:53:04.105Z,17.40
2018-11-05T11:54:04.016Z,18.10
2018-11-05T11:55:04.033Z,17.20
2018-11-05T11:56:03.983Z,18.10
2018-11-05T11:57:03.966Z,17.80
2018-11-05T11:58:03.986Z,17.40
2018-11-05T11:59:03.919Z,17.10
2018-11-05T12:00:03.911Z,17.90
2018-11-05T12:01:03.884Z,17.30
2018-11-05T12:02:03.865Z,17.50
2018-11-05T12:03:03.848Z,17.60
2018-11-05T12:04:03.827Z,17.50
2018-11-05T12:05:03.826Z,16.60
2018-11-05T12:06:03.790Z,17.70
2018-11-05T12:07:03.774Z,17.40
2018-11-05T12:08:03.753Z,17.00
2018-11-05T12:09:03.741Z,17.60
2018-11-05T12:10:03.720Z,17.60
2018-11-05T12:11:03.853Z,18.00
2018-11-05T12:12:03.687Z,17.50
2018-11-05T12:13:03.666Z,17.80
2018-11-05T12:14:03.672Z,17.20
2018-11-05T12:15:03.798Z,17.50
2018-11-05T12:16:03.609Z,17.40
2018-11-05T12:17:03.584Z,17.20
2018-11-05T12:18:03.564Z,17.70
2018-11-05T12:19:03.545Z,17.10
2018-11-05T12:20:03.535Z,17.80
2018-11-05T12:21:03.514Z,18.30
2018-11-05T12:22:03.493Z,18.10
2018-11-05T12:23:03.470Z,18.20
2018-11-05T12:24:03.453Z,17.90
2018-11-05T12:25:03.496Z,17.90
2018-11-05T12:26:03.413Z,18.50
2018-11-05T12:27:03.414Z,18.40
2018-11-05T12:28:03.378Z,18.60
2018-11-05T12:29:03.360Z,18.40
2018-11-05T12:30:03.341Z,18.10
2018-11-05T12:31:03.321Z,16.90
2018-11-05T12:32:03.341Z,16.90
2018-11-05T12:33:03.297Z,17.30
2018-11-05T12:34:03.268Z,17.00
2018-11-05T12:35:03.252Z,18.10
2018-11-05T12:36:03.328Z,18.20
2018-11-05T12:37:03.214Z,17.50
2018-11-05T12:38:03.215Z,17.30
2018-11-05T12:39:03.179Z,18.00
2018-11-05T12:40:03.157Z,17.70
2018-11-05T12:41:03.140Z,17.00
2018-11-05T12:42:03.121Z,17.70
2018-11-05T12:43:03.102Z,16.80
2018-11-05T12:44:03.092Z,17.30
2018-11-05T12:45:03.123Z,16.80
2018-11-05T12:46:03.050Z,16.20
2018-11-05T12:47:03.029Z,17.20
2018-11-05T12:48:03.013Z,17.30
2018-11-05T12:49:02.993Z,17.80
2018-11-05T12:50:02.985Z,17.10
2018-11-05T12:51:02.956Z,17.50
2018-11-05T12:52:02.944Z,18.40